Terminal Aerodrome Forecast
Issued by NWS

Home | Current Version | Previous Version | Text Only | Print | Product List | Glossary On
Versions: 1 2 3 4 5 6 7 8 9 10 11 12 13 14 15 16 17 18 19 20 21 22 23 24 25
000
FTUS41 KPBZ 280300 AAA
TAFHLG
TAF AMD
KHLG 280306Z 2803/2824 25008KT P6SM OVC100
     FM280400 27008KT P6SM -SHSN OVC030
     FM280800 30007KT P6SM OVC035
     FM281600 25008KT P6SM BKN050=

USA.gov is the U.S. government's official web portal to all federal, state and local government web resources and services.